Time;durP1;ratioP1;P1;durP2;ratioP2;P2;SDS_P1;SDS_P2;PMS_P1;PMS_P2;Temp;Humidity;BMP_temperature;BMP_pressure;BME280_temperature;BME280_humidity;BME280_pressure;Samples;Min_cycle;Max_cycle;Signal;HPM_P1;HPM_P2
2024/04/18 00:01:51;;;;;;;;;;;20.90;50.20;;;;;;1504101;78;707;-67
2024/04/18 00:03:53;;;;;;;;;;;21.00;50.20;;;;;;1505646;78;1585;-68
2024/04/18 00:05:55;;;;;;;;;;;20.90;50.20;;;;;;1512850;77;732;-71
2024/04/18 00:07:56;;;;;;;;;;;21.00;50.20;;;;;;1510431;77;730;-68
2024/04/18 00:09:58;;;;;;;;;;;21.00;50.20;;;;;;1499751;77;1167;-71
2024/04/18 00:12:00;;;;;;;;;;;21.00;50.20;;;;;;1500835;77;684;-68
2024/04/18 00:14:02;;;;;;;;;;;20.90;50.20;;;;;;1503714;77;1946;-66
2024/04/18 00:16:04;;;;;;;;;;;20.90;50.20;;;;;;1502399;78;751;-68
2024/04/18 00:18:06;;;;;;;;;;;21.00;50.30;;;;;;1507032;78;1488;-68
2024/04/18 00:20:08;;;;;;;;;;;20.90;50.20;;;;;;1499789;76;1154;-67
2024/04/18 00:22:10;;;;;;;;;;;20.90;50.20;;;;;;1499645;77;764;-67
2024/04/18 00:24:12;;;;;;;;;;;20.90;50.20;;;;;;1501933;77;675;-71
2024/04/18 00:26:14;;;;;;;;;;;20.90;50.30;;;;;;1514297;78;675;-69
2024/04/18 00:28:16;;;;;;;;;;;20.90;50.20;;;;;;1498604;77;678;-70
2024/04/18 00:30:18;;;;;;;;;;;20.90;50.30;;;;;;1505006;78;1157;-70
2024/04/18 00:32:20;;;;;;;;;;;21.00;50.30;;;;;;1519971;78;1952;-67
2024/04/18 00:34:22;;;;;;;;;;;20.90;50.30;;;;;;1511512;77;706;-68
2024/04/18 00:36:23;;;;;;;;;;;21.00;50.40;;;;;;1510913;77;702;-69
2024/04/18 00:38:25;;;;;;;;;;;20.90;50.40;;;;;;1504917;77;727;-68
2024/04/18 00:40:27;;;;;;;;;;;20.90;50.40;;;;;;1514380;77;1165;-69
2024/04/18 00:42:29;;;;;;;;;;;20.90;50.50;;;;;;1508722;78;691;-71
2024/04/18 00:44:31;;;;;;;;;;;21.00;50.40;;;;;;1509925;77;697;-72
2024/04/18 00:46:33;;;;;;;;;;;20.90;50.50;;;;;;1507771;77;1802;-68
2024/04/18 00:48:35;;;;;;;;;;;20.90;50.50;;;;;;1503103;78;709;-68
2024/04/18 00:50:37;;;;;;;;;;;20.90;50.40;;;;;;1510849;76;1135;-70
2024/04/18 00:52:39;;;;;;;;;;;20.90;50.40;;;;;;1507153;78;1932;-68
2024/04/18 00:54:41;;;;;;;;;;;20.90;50.50;;;;;;1502176;77;739;-69
2024/04/18 00:56:43;;;;;;;;;;;20.90;50.50;;;;;;1506157;77;732;-67
2024/04/18 00:58:45;;;;;;;;;;;20.90;50.50;;;;;;1495175;77;1355;-72
2024/04/18 01:00:47;;;;;;;;;;;20.90;50.60;;;;;;1503517;78;1162;-68
2024/04/18 01:02:49;;;;;;;;;;;21.00;50.50;;;;;;1515204;78;624;-67
2024/04/18 01:04:51;;;;;;;;;;;20.90;50.50;;;;;;1501662;77;709;-70
2024/04/18 01:06:53;;;;;;;;;;;20.90;50.50;;;;;;1512983;78;731;-71
2024/04/18 01:08:55;;;;;;;;;;;20.90;50.50;;;;;;1506585;77;759;-66
2024/04/18 01:10:56;;;;;;;;;;;20.90;50.50;;;;;;1511193;77;1137;-69
2024/04/18 01:12:59;;;;;;;;;;;20.90;50.50;;;;;;1514322;77;1934;-70
2024/04/18 01:15:00;;;;;;;;;;;20.90;50.60;;;;;;1505756;77;748;-66
2024/04/18 01:17:03;;;;;;;;;;;20.90;50.50;;;;;;1496674;78;885;-67
2024/04/18 01:19:09;;;;;;;;;;;20.90;50.60;;;;;;1516508;76;1163;-69
2024/04/18 01:21:11;;;;;;;;;;;21.00;50.60;;;;;;1508814;77;1553;-67
2024/04/18 01:23:13;;;;;;;;;;;20.90;50.50;;;;;;1491738;77;692;-69
2024/04/18 01:25:15;;;;;;;;;;;20.90;50.60;;;;;;1493786;78;741;-68
2024/04/18 01:27:17;;;;;;;;;;;21.00;50.70;;;;;;1503024;78;1569;-67
2024/04/18 01:29:19;;;;;;;;;;;20.90;50.70;;;;;;1491746;79;1101;-68
2024/04/18 01:31:21;;;;;;;;;;;21.00;50.70;;;;;;1492966;79;665;-69
2024/04/18 01:33:22;;;;;;;;;;;21.00;50.60;;;;;;1551003;75;1943;-70
2024/04/18 01:35:24;;;;;;;;;;;20.90;50.60;;;;;;1509584;76;570;-69
2024/04/18 01:37:26;;;;;;;;;;;20.90;50.60;;;;;;1513925;76;689;-67
2024/04/18 01:39:28;;;;;;;;;;;20.90;50.60;;;;;;1516195;76;1188;-69
2024/04/18 01:41:30;;;;;;;;;;;20.90;50.60;;;;;;1523136;76;1586;-67
2024/04/18 01:43:32;;;;;;;;;;;20.90;50.60;;;;;;1516352;76;741;-69
2024/04/18 01:45:34;;;;;;;;;;;20.90;50.60;;;;;;1507239;77;715;-70
2024/04/18 01:47:36;;;;;;;;;;;20.90;50.60;;;;;;1508067;77;723;-68
2024/04/18 01:49:38;;;;;;;;;;;20.90;50.70;;;;;;1524943;77;1168;-67
2024/04/18 01:51:40;;;;;;;;;;;21.00;50.70;;;;;;1503362;76;689;-69
2024/04/18 01:53:42;;;;;;;;;;;20.90;50.70;;;;;;1489380;78;1938;-69
2024/04/18 01:55:44;;;;;;;;;;;20.90;50.70;;;;;;1494905;78;1294;-68
2024/04/18 01:57:46;;;;;;;;;;;21.00;50.70;;;;;;1499656;78;676;-70
2024/04/18 01:59:48;;;;;;;;;;;20.90;50.70;;;;;;1489260;79;1152;-68
2024/04/18 02:01:49;;;;;;;;;;;20.90;50.70;;;;;;1498390;78;755;-69
2024/04/18 02:03:51;;;;;;;;;;;20.90;50.70;;;;;;1549128;75;671;-68
2024/04/18 02:05:53;;;;;;;;;;;20.90;50.70;;;;;;1553170;74;727;-67
2024/04/18 02:07:55;;;;;;;;;;;21.00;50.70;;;;;;1548041;74;768;-68
2024/04/18 02:09:57;;;;;;;;;;;21.00;50.70;;;;;;1550224;74;1593;-68
2024/04/18 02:11:59;;;;;;;;;;;20.90;50.70;;;;;;1551617;74;746;-68
2024/04/18 02:14:01;;;;;;;;;;;20.90;50.70;;;;;;1553535;75;1988;-66
2024/04/18 02:16:03;;;;;;;;;;;20.90;50.70;;;;;;1544576;75;581;-67
2024/04/18 02:18:05;;;;;;;;;;;20.90;50.70;;;;;;1542896;75;761;-68
2024/04/18 02:20:07;;;;;;;;;;;20.90;50.80;;;;;;1548788;74;1130;-68
2024/04/18 02:22:09;;;;;;;;;;;20.90;50.80;;;;;;1549311;74;744;-67
2024/04/18 02:24:11;;;;;;;;;;;20.90;50.80;;;;;;1549446;75;1526;-67
2024/04/18 02:26:13;;;;;;;;;;;20.90;50.80;;;;;;1546262;74;671;-67
2024/04/18 02:28:15;;;;;;;;;;;20.90;50.70;;;;;;1543555;75;705;-67
2024/04/18 02:30:17;;;;;;;;;;;21.00;50.70;;;;;;1552461;75;1157;-66
2024/04/18 02:32:18;;;;;;;;;;;20.90;50.80;;;;;;1540755;74;636;-67
2024/04/18 02:34:20;;;;;;;;;;;20.90;50.90;;;;;;1534768;75;1949;-69
2024/04/18 02:36:24;;;;;;;;;;;20.90;50.80;;;;;;1547013;74;858;-68
2024/04/18 02:38:25;;;;;;;;;;;20.90;50.90;;;;;;1555166;75;1515;-70
2024/04/18 02:40:27;;;;;;;;;;;20.90;50.90;;;;;;1552862;74;1108;-67
2024/04/18 02:42:29;;;;;;;;;;;21.00;50.90;;;;;;1542770;74;770;-67
2024/04/18 02:44:31;;;;;;;;;;;20.90;51.00;;;;;;1518183;76;1144;-70
2024/04/18 02:46:33;;;;;;;;;;;20.90;50.90;;;;;;1538848;75;701;-67
2024/04/18 02:48:36;;;;;;;;;;;20.90;50.90;;;;;;1544531;75;731;-71
2024/04/18 02:50:38;;;;;;;;;;;20.90;50.90;;;;;;1538655;74;1142;-68
2024/04/18 02:52:40;;;;;;;;;;;21.00;50.90;;;;;;1551472;76;1556;-68
2024/04/18 02:54:42;;;;;;;;;;;20.90;50.90;;;;;;1537815;75;1939;-68
2024/04/18 02:56:44;;;;;;;;;;;20.90;50.80;;;;;;1535171;75;696;-68
2024/04/18 02:58:46;;;;;;;;;;;20.90;50.90;;;;;;1549817;74;793;-68
2024/04/18 03:00:48;;;;;;;;;;;20.90;50.90;;;;;;1547054;75;1116;-71
2024/04/18 03:02:50;;;;;;;;;;;20.90;50.90;;;;;;1550610;74;695;-68
2024/04/18 03:04:52;;;;;;;;;;;20.90;50.80;;;;;;1548301;75;815;-67
2024/04/18 03:06:54;;;;;;;;;;;20.90;50.90;;;;;;1551981;75;1511;-68
2024/04/18 03:08:56;;;;;;;;;;;20.90;50.90;;;;;;1546173;75;1025;-66
2024/04/18 03:10:58;;;;;;;;;;;20.90;50.90;;;;;;1547752;74;1166;-67
2024/04/18 03:12:59;;;;;;;;;;;20.80;50.80;;;;;;1555011;75;612;-67
2024/04/18 03:15:03;;;;;;;;;;;20.90;51.00;;;;;;1555123;75;1940;-67
2024/04/18 03:17:05;;;;;;;;;;;20.80;50.80;;;;;;1546252;74;701;-68
2024/04/18 03:19:12;;;;;;;;;;;20.90;50.90;;;;;;1549768;75;1097;-66
2024/04/18 03:21:14;;;;;;;;;;;20.90;50.90;;;;;;1540947;75;1514;-69
2024/04/18 03:23:16;;;;;;;;;;;20.90;51.00;;;;;;1546265;74;630;-68
2024/04/18 03:25:18;;;;;;;;;;;20.90;51.00;;;;;;1538343;75;684;-68
2024/04/18 03:27:20;;;;;;;;;;;20.90;51.10;;;;;;1545442;74;750;-70
2024/04/18 03:29:22;;;;;;;;;;;20.90;51.00;;;;;;1549450;75;1108;-71
2024/04/18 03:31:24;;;;;;;;;;;20.90;51.10;;;;;;1541790;74;677;-68
2024/04/18 03:33:26;;;;;;;;;;;20.90;51.00;;;;;;1552115;75;1942;-67
2024/04/18 03:35:27;;;;;;;;;;;20.90;51.00;;;;;;1547666;74;805;-67
2024/04/18 03:37:29;;;;;;;;;;;20.90;51.00;;;;;;1546682;75;678;-66
2024/04/18 03:39:31;;;;;;;;;;;20.80;50.90;;;;;;1559855;74;1171;-67
2024/04/18 03:41:33;;;;;;;;;;;20.90;51.10;;;;;;1554687;75;657;-68
2024/04/18 03:43:40;;;;;;;;;;;20.90;51.10;;;;;;1544614;75;634;-70
2024/04/18 03:45:38;;;;;;;;;;;20.80;51.00;;;;;;1546764;74;1682;-67
2024/04/18 03:47:40;;;;;;;;;;;20.90;51.10;;;;;;1555087;74;1444;-66
2024/04/18 03:49:42;;;;;;;;;;;20.90;51.10;;;;;;1548469;75;1141;-67
2024/04/18 03:51:44;;;;;;;;;;;20.90;51.10;;;;;;1539594;75;662;-70
2024/04/18 03:53:46;;;;;;;;;;;20.80;51.00;;;;;;1543555;75;1951;-68
2024/04/18 03:55:48;;;;;;;;;;;20.90;51.10;;;;;;1544879;75;622;-66
2024/04/18 03:57:50;;;;;;;;;;;20.90;51.10;;;;;;1547034;76;597;-71
2024/04/18 03:59:52;;;;;;;;;;;20.90;51.10;;;;;;1545117;75;1152;-68
2024/04/18 04:01:54;;;;;;;;;;;20.80;51.00;;;;;;1540620;75;1341;-66
2024/04/18 04:03:56;;;;;;;;;;;20.80;51.00;;;;;;1552724;74;737;-65
2024/04/18 04:05:58;;;;;;;;;;;20.80;51.00;;;;;;1553404;75;919;-72
2024/04/18 04:08:00;;;;;;;;;;;20.90;51.10;;;;;;1550688;75;607;-71
2024/04/18 04:10:02;;;;;;;;;;;20.90;51.20;;;;;;1551652;75;1134;-69
2024/04/18 04:12:06;;;;;;;;;;;20.90;51.20;;;;;;1550465;75;622;-70
2024/04/18 04:14:09;;;;;;;;;;;20.90;51.20;;;;;;1547800;74;1913;-71
2024/04/18 04:16:11;;;;;;;;;;;20.90;51.20;;;;;;1548249;75;578;-69
2024/04/18 04:18:13;;;;;;;;;;;20.90;51.20;;;;;;1549938;75;743;-70
2024/04/18 04:20:15;;;;;;;;;;;20.90;51.20;;;;;;1553549;75;1122;-69
2024/04/18 04:22:16;;;;;;;;;;;20.90;51.20;;;;;;1554630;75;742;-68
2024/04/18 04:24:18;;;;;;;;;;;20.90;51.20;;;;;;1547782;75;716;-70
2024/04/18 04:26:20;;;;;;;;;;;20.90;51.20;;;;;;1545663;74;725;-69
2024/04/18 04:28:22;;;;;;;;;;;20.90;51.30;;;;;;1552102;74;655;-70
2024/04/18 04:30:24;;;;;;;;;;;20.90;51.30;;;;;;1546546;75;1148;-71
2024/04/18 04:32:26;;;;;;;;;;;20.90;51.40;;;;;;1548014;75;653;-74
2024/04/18 04:34:28;;;;;;;;;;;20.90;51.40;;;;;;1547392;75;1942;-68
2024/04/18 04:36:30;;;;;;;;;;;20.90;51.40;;;;;;1554376;75;651;-69
2024/04/18 04:38:31;;;;;;;;;;;20.90;51.50;;;;;;1547978;74;707;-70
2024/04/18 04:40:33;;;;;;;;;;;20.90;51.60;;;;;;1552307;75;1182;-72
2024/04/18 04:42:35;;;;;;;;;;;20.90;51.50;;;;;;1550292;74;715;-70
2024/04/18 04:44:37;;;;;;;;;;;20.90;51.60;;;;;;1549692;75;1464;-74
2024/04/18 04:46:39;;;;;;;;;;;20.90;51.60;;;;;;1553574;75;715;-75
2024/04/18 04:48:41;;;;;;;;;;;20.90;51.70;;;;;;1507860;76;648;-70
2024/04/18 04:50:45;;;;;;;;;;;20.90;51.70;;;;;;1486309;78;1107;-69
2024/04/18 04:52:46;;;;;;;;;;;20.90;51.70;;;;;;1502087;77;1140;-68
2024/04/18 04:54:48;;;;;;;;;;;20.90;51.70;;;;;;1491050;77;1939;-69
2024/04/18 04:56:50;;;;;;;;;;;20.90;51.80;;;;;;1492584;77;720;-72
2024/04/18 04:58:52;;;;;;;;;;;20.90;51.90;;;;;;1503478;78;1537;-71
2024/04/18 05:00:54;;;;;;;;;;;21.00;51.80;;;;;;1501403;78;1125;-73
2024/04/18 05:02:56;;;;;;;;;;;20.90;51.80;;;;;;1503428;77;798;-73
2024/04/18 05:04:58;;;;;;;;;;;20.90;50.50;;;;;;1501680;78;691;-72
2024/04/18 05:07:00;;;;;;;;;;;20.90;47.50;;;;;;1504988;77;748;-70
2024/04/18 05:09:02;;;;;;;;;;;20.80;47.30;;;;;;1499709;78;682;-73
2024/04/18 05:11:03;;;;;;;;;;;20.80;46.60;;;;;;1504021;78;742;-69
2024/04/18 05:13:05;;;;;;;;;;;20.70;47.30;;;;;;1509514;78;1389;-69
2024/04/18 05:15:08;;;;;;;;;;;20.70;47.50;;;;;;1509858;78;1953;-71
2024/04/18 05:17:10;;;;;;;;;;;20.70;47.80;;;;;;1513589;78;740;-71
2024/04/18 05:19:12;;;;;;;;;;;20.70;48.20;;;;;;1519276;77;1219;-71
2024/04/18 05:21:14;;;;;;;;;;;20.70;48.70;;;;;;1500875;78;751;-70
2024/04/18 05:23:16;;;;;;;;;;;20.80;49.00;;;;;;1506031;79;607;-71
2024/04/18 05:25:17;;;;;;;;;;;20.70;49.20;;;;;;1520587;76;723;-74
2024/04/18 05:27:19;;;;;;;;;;;20.70;49.40;;;;;;1500955;78;1419;-71
2024/04/18 05:31:41;;;;;;;;;;;20.80;49.40;;;;;;1502246;78;632;-72
2024/04/18 05:33:43;;;;;;;;;;;20.80;49.40;;;;;;1542557;75;576;-70
2024/04/18 05:35:45;;;;;;;;;;;20.80;49.50;;;;;;1556914;75;1941;-68
2024/04/18 05:37:47;;;;;;;;;;;20.80;49.60;;;;;;1557366;74;772;-70
2024/04/18 05:39:49;;;;;;;;;;;20.80;49.60;;;;;;1558341;75;1192;-72
2024/04/18 05:41:50;;;;;;;;;;;20.80;49.60;;;;;;1553091;75;1369;-72
2024/04/18 05:43:52;;;;;;;;;;;20.80;49.60;;;;;;1561098;75;700;-72
2024/04/18 05:45:54;;;;;;;;;;;20.80;49.70;;;;;;1555754;75;778;-69
2024/04/18 05:47:56;;;;;;;;;;;20.70;49.60;;;;;;1554190;75;713;-68
2024/04/18 05:49:58;;;;;;;;;;;20.80;49.60;;;;;;1557809;75;1163;-69
2024/04/18 05:52:00;;;;;;;;;;;20.80;49.60;;;;;;1558842;75;704;-70
2024/04/18 05:54:02;;;;;;;;;;;20.80;49.60;;;;;;1555607;75;1411;-69
2024/04/18 05:56:04;;;;;;;;;;;20.80;49.60;;;;;;1555845;75;1935;-73
2024/04/18 05:58:06;;;;;;;;;;;20.80;49.50;;;;;;1555598;75;716;-70
2024/04/18 06:00:08;;;;;;;;;;;20.70;49.60;;;;;;1552673;74;1145;-73
2024/04/18 06:02:10;;;;;;;;;;;20.70;49.50;;;;;;1549035;74;751;-73
2024/04/18 06:04:12;;;;;;;;;;;20.80;49.60;;;;;;1551838;74;724;-69
2024/04/18 06:06:14;;;;;;;;;;;20.80;49.50;;;;;;1550478;74;697;-71
2024/04/18 06:08:16;;;;;;;;;;;20.70;49.50;;;;;;1546488;75;1370;-69
2024/04/18 06:10:18;;;;;;;;;;;20.70;49.40;;;;;;1556366;75;1188;-69
2024/04/18 06:12:20;;;;;;;;;;;20.80;49.40;;;;;;1558192;74;602;-71
2024/04/18 06:14:21;;;;;;;;;;;20.80;49.40;;;;;;1557679;75;1938;-70
2024/04/18 06:16:23;;;;;;;;;;;20.80;49.40;;;;;;1557915;74;650;-68
2024/04/18 06:18:29;;;;;;;;;;;20.70;49.40;;;;;;1553048;74;631;-71
2024/04/18 06:20:29;;;;;;;;;;;20.70;49.30;;;;;;1558572;74;1651;-71
2024/04/18 06:22:30;;;;;;;;;;;20.80;49.30;;;;;;1554455;75;1447;-69
2024/04/18 06:24:32;;;;;;;;;;;20.70;49.30;;;;;;1562826;75;560;-69
2024/04/18 06:26:34;;;;;;;;;;;20.80;49.30;;;;;;1557185;75;635;-70
2024/04/18 06:28:36;;;;;;;;;;;20.80;49.30;;;;;;1555571;75;691;-69
2024/04/18 06:30:38;;;;;;;;;;;20.70;49.30;;;;;;1548803;74;1111;-71
2024/04/18 06:32:40;;;;;;;;;;;20.80;49.30;;;;;;1551243;75;731;-71
2024/04/18 06:34:42;;;;;;;;;;;20.70;49.30;;;;;;1558817;75;1946;-70
2024/04/18 06:36:44;;;;;;;;;;;20.80;49.20;;;;;;1557481;75;1417;-70
2024/04/18 06:38:46;;;;;;;;;;;20.70;49.20;;;;;;1561656;75;700;-67
2024/04/18 06:40:48;;;;;;;;;;;20.80;49.20;;;;;;1552207;75;1213;-67
2024/04/18 06:42:53;;;;;;;;;;;20.70;49.20;;;;;;1543900;75;653;-68
2024/04/18 06:44:55;;;;;;;;;;;20.80;49.20;;;;;;1557818;75;707;-71
2024/04/18 06:46:57;;;;;;;;;;;20.80;49.10;;;;;;1553646;74;685;-69
2024/04/18 06:48:59;;;;;;;;;;;20.70;49.20;;;;;;1560483;74;639;-69
2024/04/18 06:51:01;;;;;;;;;;;20.80;49.10;;;;;;1555131;75;1559;-69
2024/04/18 06:53:03;;;;;;;;;;;20.80;49.10;;;;;;1552606;74;698;-70
2024/04/18 06:55:05;;;;;;;;;;;20.70;49.20;;;;;;1546831;75;1932;-68
2024/04/18 06:57:06;;;;;;;;;;;20.80;49.10;;;;;;1547369;75;539;-68
2024/04/18 06:59:10;;;;;;;;;;;20.70;49.10;;;;;;1557246;74;1148;-69
2024/04/18 07:01:12;;;;;;;;;;;20.80;49.10;;;;;;1553995;75;694;-69
2024/04/18 07:03:15;;;;;;;;;;;20.70;49.10;;;;;;1550578;74;742;-70
2024/04/18 07:05:17;;;;;;;;;;;20.70;49.00;;;;;;1557156;75;1428;-67
2024/04/18 07:07:19;;;;;;;;;;;20.70;49.00;;;;;;1546434;75;600;-68
2024/04/18 07:09:21;;;;;;;;;;;20.70;49.00;;;;;;1552917;75;1101;-69
2024/04/18 07:11:23;;;;;;;;;;;20.70;48.90;;;;;;1552353;76;681;-69
2024/04/18 07:13:24;;;;;;;;;;;20.70;49.00;;;;;;1558299;75;645;-70
2024/04/18 07:15:26;;;;;;;;;;;20.70;48.90;;;;;;1557345;75;1942;-69
2024/04/18 07:17:28;;;;;;;;;;;20.70;48.90;;;;;;1559961;74;645;-70
2024/04/18 07:19:30;;;;;;;;;;;20.70;48.90;;;;;;1556667;75;1392;-68
2024/04/18 07:21:32;;;;;;;;;;;20.70;48.90;;;;;;1560944;75;642;-68
2024/04/18 07:23:34;;;;;;;;;;;20.70;48.90;;;;;;1556318;74;703;-72
2024/04/18 07:25:37;;;;;;;;;;;20.70;48.90;;;;;;1547986;75;695;-68
2024/04/18 07:27:39;;;;;;;;;;;20.70;48.90;;;;;;1547583;75;806;-68
2024/04/18 07:29:40;;;;;;;;;;;20.80;48.90;;;;;;1550896;74;1075;-69
2024/04/18 07:31:42;;;;;;;;;;;20.80;48.80;;;;;;1554268;75;688;-70
2024/04/18 07:33:44;;;;;;;;;;;20.70;48.80;;;;;;1548090;74;1304;-69
2024/04/18 07:35:55;;;;;;;;;;;20.70;48.90;;;;;;1560005;74;1928;-68
2024/04/18 07:37:57;;;;;;;;;;;20.70;48.90;;;;;;1544988;74;770;-69
2024/04/18 07:40:02;;;;;;;;;;;20.70;48.90;;;;;;1555597;75;1176;-70
2024/04/18 07:42:03;;;;;;;;;;;20.80;48.90;;;;;;1554482;75;1648;-72
2024/04/18 07:44:07;;;;;;;;;;;20.70;48.80;;;;;;1550643;74;688;-70
2024/04/18 07:46:09;;;;;;;;;;;20.80;48.90;;;;;;1547773;74;1056;-71
2024/04/18 07:48:11;;;;;;;;;;;20.80;48.90;;;;;;1558071;75;1249;-71
2024/04/18 07:50:12;;;;;;;;;;;20.80;48.90;;;;;;1557380;75;1200;-70
2024/04/18 07:52:14;;;;;;;;;;;20.80;48.90;;;;;;1550218;75;610;-71
2024/04/18 07:54:18;;;;;;;;;;;20.80;48.80;;;;;;1554069;74;699;-69
2024/04/18 07:56:20;;;;;;;;;;;20.80;48.70;;;;;;1555386;75;1931;-69
2024/04/18 07:58:21;;;;;;;;;;;20.80;48.70;;;;;;1553643;74;671;-68
2024/04/18 08:00:23;;;;;;;;;;;20.70;48.70;;;;;;1558333;75;1148;-68
2024/04/18 08:02:25;;;;;;;;;;;20.80;48.70;;;;;;1558290;76;1667;-68
2024/04/18 08:04:27;;;;;;;;;;;20.80;48.70;;;;;;1556933;75;660;-69
2024/04/18 08:06:29;;;;;;;;;;;20.80;48.70;;;;;;1552462;75;707;-70
2024/04/18 08:08:31;;;;;;;;;;;20.80;48.70;;;;;;1560038;75;653;-71
2024/04/18 08:10:33;;;;;;;;;;;20.80;48.60;;;;;;1560669;75;1153;-69
2024/04/18 08:12:35;;;;;;;;;;;20.80;48.70;;;;;;1554163;74;647;-73
2024/04/18 08:14:37;;;;;;;;;;;20.80;48.60;;;;;;1528345;76;748;-73
2024/04/18 08:16:39;;;;;;;;;;;20.80;48.60;;;;;;1499298;78;1933;-70
2024/04/18 08:18:40;;;;;;;;;;;20.80;48.60;;;;;;1521521;77;661;-70
2024/04/18 08:20:43;;;;;;;;;;;20.80;48.60;;;;;;1495371;78;1154;-68
2024/04/18 08:22:45;;;;;;;;;;;20.80;48.60;;;;;;1504823;79;666;-68
2024/04/18 08:24:47;;;;;;;;;;;20.80;48.50;;;;;;1493397;78;635;-69
2024/04/18 08:26:49;;;;;;;;;;;20.80;48.60;;;;;;1503670;78;593;-68
2024/04/18 08:28:50;;;;;;;;;;;20.80;48.50;;;;;;1499510;79;1410;-71
2024/04/18 08:30:53;;;;;;;;;;;20.70;48.60;;;;;;1507356;77;1112;-72
2024/04/18 08:32:55;;;;;;;;;;;20.80;48.50;;;;;;1491501;78;722;-70
2024/04/18 08:34:57;;;;;;;;;;;20.80;48.50;;;;;;1498753;78;755;-70
2024/04/18 08:36:59;;;;;;;;;;;20.80;48.60;;;;;;1492556;78;1934;-71
2024/04/18 08:39:01;;;;;;;;;;;20.70;48.50;;;;;;1513756;76;735;-69
2024/04/18 08:41:06;;;;;;;;;;;20.80;48.50;;;;;;1515370;77;1128;-70
2024/04/18 08:43:06;;;;;;;;;;;20.70;48.50;;;;;;1513350;76;1629;-69
2024/04/18 08:45:08;;;;;;;;;;;20.80;48.40;;;;;;1516239;76;730;-69
2024/04/18 08:47:10;;;;;;;;;;;20.80;48.60;;;;;;1520681;76;627;-68
2024/04/18 08:49:13;;;;;;;;;;;20.70;48.50;;;;;;1515418;76;1203;-69
2024/04/18 08:51:15;;;;;;;;;;;20.70;48.50;;;;;;1512708;76;657;-70
2024/04/18 08:53:17;;;;;;;;;;;20.70;48.50;;;;;;1507202;77;718;-68
2024/04/18 08:55:18;;;;;;;;;;;20.70;48.50;;;;;;1515056;76;1937;-69
2024/04/18 08:57:20;;;;;;;;;;;20.70;48.50;;;;;;1497448;78;1397;-70
2024/04/18 08:59:22;;;;;;;;;;;20.70;48.40;;;;;;1514633;76;1215;-69
2024/04/18 09:01:24;;;;;;;;;;;20.80;48.40;;;;;;1501045;78;684;-69
2024/04/18 09:03:26;;;;;;;;;;;20.70;48.40;;;;;;1497923;78;681;-69
2024/04/18 09:05:28;;;;;;;;;;;20.70;48.40;;;;;;1510108;77;679;-70
2024/04/18 09:07:30;;;;;;;;;;;20.70;48.50;;;;;;1518447;77;618;-69
2024/04/18 09:09:32;;;;;;;;;;;20.70;48.50;;;;;;1505103;78;1155;-69
2024/04/18 09:11:34;;;;;;;;;;;20.70;48.40;;;;;;1520113;77;1560;-70
2024/04/18 09:13:36;;;;;;;;;;;20.70;48.50;;;;;;1499583;79;769;-73
2024/04/18 09:15:38;;;;;;;;;;;20.70;48.50;;;;;;1516441;77;1937;-70
2024/04/18 09:17:40;;;;;;;;;;;20.70;48.40;;;;;;1499724;79;646;-73
2024/04/18 09:19:42;;;;;;;;;;;20.70;48.40;;;;;;1496369;77;1254;-68
2024/04/18 09:21:44;;;;;;;;;;;20.70;48.40;;;;;;1499537;77;712;-72
2024/04/18 09:23:46;;;;;;;;;;;20.80;48.40;;;;;;1482101;78;670;-71
2024/04/18 09:25:50;;;;;;;;;;;20.70;48.40;;;;;;1492042;78;1431;-72
2024/04/18 09:27:52;;;;;;;;;;;20.80;48.50;;;;;;1495000;77;1885;-68
2024/04/18 09:29:53;;;;;;;;;;;20.80;48.40;;;;;;1473404;78;1143;-69
2024/04/18 09:31:55;;;;;;;;;;;20.80;48.50;;;;;;1502945;78;611;-70
2024/04/18 09:33:57;;;;;;;;;;;20.70;48.50;;;;;;1507731;78;613;-70
2024/04/18 09:36:00;;;;;;;;;;;20.80;48.40;;;;;;1504281;78;1942;-71
2024/04/18 09:38:02;;;;;;;;;;;20.80;48.50;;;;;;1502520;78;722;-69
2024/04/18 09:40:04;;;;;;;;;;;20.80;48.40;;;;;;1505342;78;1358;-70
2024/04/18 09:42:07;;;;;;;;;;;20.70;48.40;;;;;;1498212;77;705;-69
2024/04/18 09:44:16;;;;;;;;;;;20.80;48.40;;;;;;1476547;78;1396;-70
2024/04/18 09:46:17;;;;;;;;;;;20.70;48.50;;;;;;1505296;78;747;-70
2024/04/18 09:48:19;;;;;;;;;;;20.80;48.40;;;;;;1502415;78;766;-71
2024/04/18 09:50:21;;;;;;;;;;;20.80;48.40;;;;;;1507388;78;1172;-69
2024/04/18 09:52:23;;;;;;;;;;;20.80;48.40;;;;;;1502027;78;585;-69
2024/04/18 09:54:25;;;;;;;;;;;20.70;48.50;;;;;;1505102;78;1389;-70
2024/04/18 09:56:28;;;;;;;;;;;20.70;48.40;;;;;;1506288;78;1941;-69
2024/04/18 09:58:30;;;;;;;;;;;20.70;48.40;;;;;;1502796;78;698;-71
2024/04/18 10:00:31;;;;;;;;;;;20.70;48.40;;;;;;1508480;78;1157;-69
2024/04/18 10:02:33;;;;;;;;;;;20.80;48.40;;;;;;1504757;78;618;-71
2024/04/18 10:04:35;;;;;;;;;;;20.70;48.40;;;;;;1501504;78;712;-70
2024/04/18 10:06:38;;;;;;;;;;;20.80;48.40;;;;;;1510346;78;771;-73
2024/04/18 10:08:41;;;;;;;;;;;20.80;48.40;;;;;;1498627;78;1486;-70
2024/04/18 10:10:43;;;;;;;;;;;20.80;48.40;;;;;;1509974;78;1129;-68
2024/04/18 10:12:45;;;;;;;;;;;20.70;48.40;;;;;;1508147;78;696;-72
2024/04/18 10:14:47;;;;;;;;;;;20.70;48.40;;;;;;1492511;78;724;-67
2024/04/18 10:16:49;;;;;;;;;;;20.80;48.40;;;;;;1509290;78;1938;-72
2024/04/18 10:18:51;;;;;;;;;;;20.70;48.50;;;;;;1499645;78;719;-71
2024/04/18 10:20:53;;;;;;;;;;;20.70;48.40;;;;;;1507620;78;1171;-69
2024/04/18 10:22:56;;;;;;;;;;;20.80;48.50;;;;;;1496079;78;1352;-70
2024/04/18 10:24:58;;;;;;;;;;;20.70;48.50;;;;;;1493250;78;715;-71
2024/04/18 10:27:11;;;;;;;;;;;20.70;48.60;;;;;;1503514;78;757;-69
2024/04/18 10:29:26;;;;;;;;;;;20.70;48.60;;;;;;1505259;77;1156;-70
2024/04/18 10:31:31;;;;;;;;;;;20.70;48.60;;;;;;1508608;78;1056;-71
2024/04/18 10:33:36;;;;;;;;;;;20.80;48.70;;;;;;1506867;78;1163;-69
2024/04/18 10:35:38;;;;;;;;;;;20.80;48.80;;;;;;1505205;78;1374;-72
2024/04/18 10:37:41;;;;;;;;;;;20.80;48.90;;;;;;1509155;78;1948;-73
2024/04/18 10:39:44;;;;;;;;;;;20.70;48.90;;;;;;1490374;79;1291;-68
2024/04/18 10:41:45;;;;;;;;;;;20.70;48.90;;;;;;1505674;78;1146;-69
2024/04/18 10:43:48;;;;;;;;;;;20.80;49.00;;;;;;1504426;78;1215;-70
2024/04/18 10:45:49;;;;;;;;;;;20.70;49.00;;;;;;1500622;78;559;-69
2024/04/18 10:47:52;;;;;;;;;;;20.80;49.00;;;;;;1511489;78;719;-69
2024/04/18 10:49:54;;;;;;;;;;;20.70;49.10;;;;;;1508127;78;1376;-69
2024/04/18 10:51:58;;;;;;;;;;;20.80;49.10;;;;;;1499445;78;753;-69
2024/04/18 10:54:00;;;;;;;;;;;20.70;49.10;;;;;;1495290;78;1520;-68
2024/04/18 10:56:02;;;;;;;;;;;20.80;49.00;;;;;;1504725;78;1934;-69
2024/04/18 10:58:04;;;;;;;;;;;20.70;49.10;;;;;;1491564;78;709;-71
2024/04/18 11:00:08;;;;;;;;;;;20.80;49.10;;;;;;1503422;78;1288;-68
2024/04/18 11:02:14;;;;;;;;;;;20.80;49.20;;;;;;1503321;78;604;-68
2024/04/18 11:04:13;;;;;;;;;;;20.80;49.20;;;;;;1503364;78;1494;-67
2024/04/18 11:06:15;;;;;;;;;;;20.80;49.20;;;;;;1505511;78;732;-69
2024/04/18 11:08:17;;;;;;;;;;;20.70;49.20;;;;;;1504205;77;735;-68
2024/04/18 11:10:19;;;;;;;;;;;20.80;49.20;;;;;;1500121;78;1137;-70
2024/04/18 11:12:21;;;;;;;;;;;20.80;49.20;;;;;;1506875;77;679;-69
2024/04/18 11:14:25;;;;;;;;;;;20.80;49.20;;;;;;1502926;78;1300;-69
2024/04/18 11:16:26;;;;;;;;;;;20.80;49.20;;;;;;1511350;78;1988;-71
2024/04/18 11:18:28;;;;;;;;;;;20.80;49.20;;;;;;1505828;78;1457;-71
2024/04/18 11:20:30;;;;;;;;;;;20.80;49.20;;;;;;1500238;77;1139;-70
2024/04/18 11:22:32;;;;;;;;;;;20.80;49.20;;;;;;1505693;77;742;-71
2024/04/18 11:24:34;;;;;;;;;;;20.80;49.20;;;;;;1508161;78;724;-69
2024/04/18 11:26:36;;;;;;;;;;;20.80;49.20;;;;;;1510367;78;607;-68
2024/04/18 11:28:38;;;;;;;;;;;20.70;49.10;;;;;;1506891;78;677;-73
2024/04/18 11:30:41;;;;;;;;;;;20.80;49.20;;;;;;1515547;76;1165;-71
2024/04/18 11:32:43;;;;;;;;;;;20.80;49.20;;;;;;1504080;78;1419;-68
2024/04/18 11:34:47;;;;;;;;;;;20.80;49.20;;;;;;1498135;78;710;-68
2024/04/18 11:36:48;;;;;;;;;;;20.80;49.10;;;;;;1502963;78;1941;-69
2024/04/18 11:38:50;;;;;;;;;;;20.80;49.10;;;;;;1487905;79;1162;-70
2024/04/18 11:40:52;;;;;;;;;;;20.70;49.10;;;;;;1501978;78;1132;-71
2024/04/18 11:42:54;;;;;;;;;;;20.80;49.10;;;;;;1511602;78;1309;-69
2024/04/18 11:44:56;;;;;;;;;;;20.80;49.10;;;;;;1506548;77;705;-71
2024/04/18 11:46:58;;;;;;;;;;;20.80;49.20;;;;;;1508858;78;1568;-71
2024/04/18 11:49:00;;;;;;;;;;;20.80;49.10;;;;;;1506312;77;762;-70
2024/04/18 11:51:01;;;;;;;;;;;20.70;49.10;;;;;;1510125;77;1081;-72
2024/04/18 11:53:03;;;;;;;;;;;20.80;49.20;;;;;;1509480;78;818;-70
2024/04/18 11:55:05;;;;;;;;;;;20.70;49.10;;;;;;1504841;77;712;-69
2024/04/18 11:57:07;;;;;;;;;;;20.80;49.10;;;;;;1507078;78;1931;-72
2024/04/18 11:59:09;;;;;;;;;;;20.80;49.10;;;;;;1503955;78;1168;-69
2024/04/18 12:01:13;;;;;;;;;;;20.80;49.20;;;;;;1505076;78;1548;-69
2024/04/18 12:03:14;;;;;;;;;;;20.70;49.10;;;;;;1507167;78;1745;-71
2024/04/18 12:05:16;;;;;;;;;;;20.80;49.00;;;;;;1505833;77;734;-71
2024/04/18 12:07:18;;;;;;;;;;;20.80;49.10;;;;;;1502178;78;710;-69
2024/04/18 12:09:20;;;;;;;;;;;20.70;49.10;;;;;;1508563;77;1137;-73